createdAt,value
2023-01-23T00:00:05.720Z,70.50
2023-01-23T00:02:07.309Z,75.07
2023-01-23T00:04:10.366Z,75.95
2023-01-23T00:06:12.944Z,67.32
2023-01-23T00:08:14.556Z,65.38
2023-01-23T00:10:16.232Z,66.55
2023-01-23T00:12:17.682Z,68.50
2023-01-23T00:14:19.137Z,62.95
2023-01-23T00:16:21.749Z,63.15
2023-01-23T00:18:23.354Z,62.90
2023-01-23T00:20:30.687Z,64.57
2023-01-23T00:22:32.303Z,62.28
2023-01-23T00:24:39.997Z,61.75
2023-01-23T00:26:41.690Z,57.70
2023-01-23T00:29:03.136Z,56.38
2023-01-23T00:31:13.104Z,56.92
2023-01-23T00:33:20.220Z,60.78
2023-01-23T00:35:22.149Z,59.00
2023-01-23T00:37:23.661Z,55.30
2023-01-23T00:39:25.205Z,54.70
2023-01-23T00:41:26.902Z,55.97
2023-01-23T00:43:28.620Z,58.25
2023-01-23T00:45:33.048Z,51.20
2023-01-23T00:47:34.550Z,56.22
2023-01-23T00:49:57.516Z,56.75
2023-01-23T00:51:59.010Z,52.63
2023-01-23T00:54:00.779Z,52.83
2023-01-23T00:56:02.435Z,54.63
2023-01-23T00:58:22.616Z,57.65
2023-01-23T01:00:26.703Z,51.03
2023-01-23T01:02:28.274Z,53.80
2023-01-23T01:06:33.997Z,52.05
2023-01-23T01:08:35.673Z,53.88
2023-01-23T01:10:40.668Z,51.90
2023-01-23T01:12:45.176Z,51.63
2023-01-23T01:14:46.715Z,54.78
2023-01-23T01:16:51.101Z,52.28
2023-01-23T01:18:52.642Z,52.90
2023-01-23T01:20:54.424Z,51.20
2023-01-23T01:22:57.404Z,50.78
2023-01-23T01:24:58.930Z,49.45
2023-01-23T01:27:02.954Z,50.63
2023-01-23T01:29:07.364Z,51.95
2023-01-23T01:31:10.734Z,48.28
2023-01-23T01:33:12.346Z,50.50
2023-01-23T01:35:32.422Z,44.30
2023-01-23T01:37:37.897Z,44.90
2023-01-23T01:39:39.409Z,48.58
2023-01-23T01:41:40.878Z,44.47
2023-01-23T01:43:42.747Z,45.58
2023-01-23T01:45:56.139Z,44.15
2023-01-23T01:47:57.736Z,44.83
2023-01-23T01:50:04.218Z,47.33
2023-01-23T01:52:13.020Z,43.20
2023-01-23T01:54:14.467Z,42.25
2023-01-23T01:56:17.840Z,44.22
2023-01-23T01:58:19.756Z,41.33
2023-01-23T02:00:24.640Z,44.25
2023-01-23T02:02:40.676Z,43.22
2023-01-23T02:04:45.124Z,42.20
2023-01-23T02:06:46.608Z,45.25
2023-01-23T02:09:14.515Z,43.80
2023-01-23T02:11:18.523Z,44.58
2023-01-23T02:13:21.844Z,40.88
2023-01-23T02:15:23.480Z,43.13
2023-01-23T02:17:25.356Z,42.53
2023-01-23T02:19:37.521Z,39.72
2023-01-23T02:21:43.418Z,43.78
2023-01-23T02:24:13.848Z,42.88
2023-01-23T02:26:45.483Z,40.10
2023-01-23T02:28:59.811Z,40.00
2023-01-23T02:31:16.116Z,38.63
2023-01-23T02:33:43.593Z,41.53
2023-01-23T02:35:50.127Z,41.10
2023-01-23T02:37:55.829Z,41.05
2023-01-23T02:39:59.308Z,41.63
2023-01-23T02:42:10.186Z,41.00
2023-01-23T02:44:18.401Z,38.65
2023-01-23T02:48:31.016Z,42.53
2023-01-23T02:50:40.636Z,38.30
2023-01-23T02:52:51.393Z,39.65
2023-01-23T02:55:02.491Z,39.33
2023-01-23T02:57:05.750Z,37.53
2023-01-23T02:59:28.970Z,39.70
2023-01-23T03:01:49.019Z,41.67
2023-01-23T03:03:56.653Z,39.90
2023-01-23T03:05:59.265Z,39.58
2023-01-23T03:08:00.843Z,37.85
2023-01-23T03:10:05.815Z,39.47
2023-01-23T03:12:07.340Z,38.45
2023-01-23T03:14:16.400Z,37.97
2023-01-23T03:16:17.902Z,38.50
2023-01-23T03:18:19.896Z,38.40
2023-01-23T03:20:24.356Z,35.15
2023-01-23T03:22:26.528Z,38.88
2023-01-23T03:24:46.735Z,35.90
2023-01-23T03:26:48.891Z,40.78
2023-01-23T03:29:14.879Z,39.38
2023-01-23T03:31:22.293Z,36.85
2023-01-23T03:33:23.861Z,37.63
2023-01-23T03:35:31.616Z,37.33
2023-01-23T03:37:36.048Z,38.78
2023-01-23T03:40:02.509Z,35.53
2023-01-23T03:42:04.208Z,34.13
2023-01-23T03:44:11.647Z,35.08
2023-01-23T03:46:13.464Z,34.08
2023-01-23T03:48:15.070Z,36.38
2023-01-23T03:50:20.012Z,34.97
2023-01-23T03:52:21.760Z,37.03
2023-01-23T03:54:23.289Z,33.08
2023-01-23T03:56:24.911Z,34.05
2023-01-23T03:58:26.459Z,33.38
2023-01-23T04:00:27.967Z,34.08
2023-01-23T04:02:29.549Z,34.22
2023-01-23T04:04:31.889Z,35.15
2023-01-23T04:06:33.515Z,31.95
2023-01-23T04:08:40.959Z,32.83
2023-01-23T04:10:42.429Z,33.17
2023-01-23T04:12:43.983Z,34.70
2023-01-23T04:14:48.255Z,31.77
2023-01-23T04:16:53.943Z,34.03
2023-01-23T04:18:58.257Z,31.92
2023-01-23T04:20:59.877Z,33.63
2023-01-23T04:23:01.369Z,32.22
2023-01-23T04:25:02.964Z,33.08
2023-01-23T04:27:07.220Z,31.38
2023-01-23T04:29:27.604Z,32.85
2023-01-23T04:31:35.341Z,30.23
2023-01-23T04:33:39.834Z,31.50
2023-01-23T04:35:54.539Z,29.38
2023-01-23T04:38:15.054Z,30.25
2023-01-23T04:40:16.778Z,31.08
2023-01-23T04:42:24.574Z,32.55
2023-01-23T04:44:27.026Z,29.30
2023-01-23T04:46:31.437Z,32.13
2023-01-23T04:48:32.917Z,31.23
2023-01-23T04:50:34.492Z,31.20
2023-01-23T04:52:39.091Z,30.95
2023-01-23T04:54:43.693Z,29.55
2023-01-23T04:57:03.791Z,29.45
2023-01-23T04:59:05.550Z,31.38
2023-01-23T05:01:07.694Z,32.15
2023-01-23T05:03:12.240Z,31.60
2023-01-23T05:05:21.185Z,30.67
2023-01-23T05:07:26.016Z,29.83
2023-01-23T05:09:27.556Z,29.83
2023-01-23T05:11:29.811Z,31.10
2023-01-23T05:13:34.587Z,30.65
2023-01-23T05:15:36.233Z,28.67
2023-01-23T05:17:37.799Z,29.58
2023-01-23T05:19:42.294Z,29.42
2023-01-23T05:21:43.742Z,29.83
2023-01-23T05:24:03.976Z,26.88
2023-01-23T05:26:05.632Z,32.17
2023-01-23T05:28:11.648Z,30.10
2023-01-23T05:30:32.147Z,29.55
2023-01-23T05:32:35.296Z,29.55
2023-01-23T05:34:42.098Z,30.95
2023-01-23T05:36:48.170Z,27.65
2023-01-23T05:38:57.864Z,27.98
2023-01-23T05:41:01.392Z,28.52
2023-01-23T05:43:04.739Z,27.90
2023-01-23T05:45:08.781Z,29.08
2023-01-23T05:47:12.421Z,27.60
2023-01-23T05:49:15.123Z,28.25
2023-01-23T05:51:21.088Z,27.83
2023-01-23T05:53:30.334Z,26.58
2023-01-23T05:55:33.700Z,28.60
2023-01-23T05:57:40.131Z,25.35
2023-01-23T05:59:49.827Z,26.73
2023-01-23T06:01:54.200Z,27.83
2023-01-23T06:03:55.838Z,26.35
2023-01-23T06:05:57.293Z,27.48
2023-01-23T06:08:17.182Z,25.35
2023-01-23T06:10:18.971Z,25.85
2023-01-23T06:12:26.470Z,24.25
2023-01-23T06:16:34.892Z,24.75
2023-01-23T06:18:39.030Z,26.70
2023-01-23T06:20:40.553Z,28.35
2023-01-23T06:22:42.101Z,26.55
2023-01-23T06:24:49.572Z,26.67
2023-01-23T06:28:55.246Z,23.42
2023-01-23T06:31:00.337Z,24.95
2023-01-23T06:33:04.483Z,26.48
2023-01-23T06:35:06.183Z,25.80
2023-01-23T06:37:07.607Z,26.42
2023-01-23T06:39:13.460Z,24.02
2023-01-23T06:41:19.837Z,24.30
2023-01-23T06:43:27.429Z,25.05
2023-01-23T06:45:29.014Z,26.35
2023-01-23T06:47:33.462Z,24.75
2023-01-23T06:49:35.202Z,26.98
2023-01-23T06:51:55.677Z,26.25
2023-01-23T06:54:00.202Z,23.33
2023-01-23T06:56:05.567Z,22.45
2023-01-23T06:58:07.234Z,25.90
2023-01-23T07:00:09.941Z,25.30
2023-01-23T07:02:17.247Z,24.67
2023-01-23T07:06:25.714Z,24.25
2023-01-23T07:08:30.748Z,25.20
2023-01-23T07:10:38.156Z,24.58
2023-01-23T07:12:42.222Z,24.02
2023-01-23T07:14:43.668Z,21.67
2023-01-23T07:16:48.101Z,22.45
2023-01-23T07:18:52.436Z,23.30
2023-01-23T07:20:56.745Z,23.17
2023-01-23T07:23:00.808Z,23.58
2023-01-23T07:25:21.110Z,24.17
2023-01-23T07:27:22.608Z,24.58
2023-01-23T07:29:26.979Z,24.15
2023-01-23T07:31:28.556Z,24.85
2023-01-23T07:33:48.630Z,23.33
2023-01-23T07:35:50.255Z,24.55
2023-01-23T07:37:51.860Z,22.67
2023-01-23T07:39:53.581Z,23.50
2023-01-23T07:41:57.980Z,23.67
2023-01-23T07:43:59.425Z,23.67
2023-01-23T07:46:19.846Z,22.90
2023-01-23T07:48:21.530Z,21.73
2023-01-23T07:50:23.216Z,22.42
2023-01-23T07:52:24.805Z,22.23
2023-01-23T07:54:26.320Z,21.20
2023-01-23T07:56:27.880Z,20.42
2023-01-23T07:58:29.398Z,23.52
2023-01-23T08:00:33.746Z,21.60
2023-01-23T08:02:38.386Z,22.77
2023-01-23T08:04:42.700Z,22.38
2023-01-23T08:06:47.053Z,22.52
2023-01-23T08:08:51.370Z,21.25
2023-01-23T08:10:55.596Z,22.05
2023-01-23T08:12:57.073Z,21.10
2023-01-23T08:15:01.399Z,22.77
2023-01-23T08:17:02.924Z,22.88
2023-01-23T08:21:11.549Z,23.52
2023-01-23T08:23:15.961Z,19.63
2023-01-23T08:25:21.043Z,21.25
2023-01-23T08:27:25.063Z,21.77
2023-01-23T08:29:30.839Z,27.45
2023-01-23T08:31:32.364Z,24.45
2023-01-23T08:33:35.885Z,24.45
2023-01-23T08:35:38.626Z,23.95
2023-01-23T08:37:43.279Z,23.42
2023-01-23T08:39:49.710Z,22.73
2023-01-23T08:42:11.857Z,22.70
2023-01-23T08:44:18.191Z,24.88
2023-01-23T08:46:21.712Z,25.65
2023-01-23T08:48:42.767Z,26.80
2023-01-23T08:50:49.569Z,26.13
2023-01-23T08:52:56.709Z,25.92
2023-01-23T08:55:00.303Z,25.63
2023-01-23T08:57:07.205Z,27.55
2023-01-23T08:59:14.674Z,29.42
2023-01-23T09:01:20.509Z,33.28
2023-01-23T09:03:28.664Z,28.30
2023-01-23T09:05:32.018Z,27.90
2023-01-23T09:07:38.872Z,29.75
2023-01-23T09:09:58.657Z,27.08
2023-01-23T09:12:00.107Z,27.10
2023-01-23T09:14:04.129Z,27.58
2023-01-23T09:16:08.201Z,26.90
2023-01-23T09:18:12.270Z,28.73
2023-01-23T09:20:13.821Z,27.48
2023-01-23T09:22:33.847Z,26.45
2023-01-23T09:26:43.568Z,26.52
2023-01-23T09:28:47.806Z,25.83
2023-01-23T09:30:52.342Z,26.55
2023-01-23T09:32:54.147Z,27.98
2023-01-23T09:34:55.677Z,25.65
2023-01-23T09:36:57.144Z,28.23
2023-01-23T09:38:58.624Z,26.83
2023-01-23T09:41:00.869Z,26.60
2023-01-23T09:43:05.342Z,26.98
2023-01-23T09:45:12.007Z,27.13
2023-01-23T09:47:16.565Z,24.40
2023-01-23T09:49:23.359Z,24.52
2023-01-23T09:53:44.904Z,26.40
2023-01-23T09:56:00.605Z,24.63
2023-01-23T09:58:03.769Z,26.50
2023-01-23T10:00:11.234Z,24.77
2023-01-23T10:02:20.221Z,23.42
2023-01-23T10:04:21.975Z,25.15
2023-01-23T10:06:25.076Z,25.92
2023-01-23T10:08:48.023Z,25.40
2023-01-23T10:11:08.506Z,25.67
2023-01-23T10:13:23.001Z,25.65
2023-01-23T10:15:33.738Z,25.08
2023-01-23T10:17:53.472Z,24.10
2023-01-23T10:20:16.792Z,24.60
2023-01-23T10:22:36.071Z,22.67
2023-01-23T10:24:45.357Z,23.05
2023-01-23T10:26:50.235Z,22.85
2023-01-23T10:28:54.475Z,21.50
2023-01-23T10:31:00.843Z,21.30
2023-01-23T10:33:15.396Z,23.20
2023-01-23T10:35:24.086Z,25.20
2023-01-23T10:37:45.646Z,21.52
2023-01-23T10:39:57.596Z,23.88
2023-01-23T10:42:02.984Z,22.90
2023-01-23T10:44:17.675Z,20.50
2023-01-23T10:46:20.862Z,20.15
2023-01-23T10:48:44.409Z,18.08
2023-01-23T10:50:48.513Z,18.38
2023-01-23T10:52:53.100Z,19.92
2023-01-23T10:54:57.323Z,20.42
2023-01-23T10:59:06.343Z,19.83
2023-01-23T11:01:27.494Z,20.67
2023-01-23T11:03:30.871Z,18.88
2023-01-23T11:05:43.523Z,18.33
2023-01-23T11:07:55.970Z,18.25
2023-01-23T11:10:09.503Z,18.92
2023-01-23T11:12:18.685Z,17.02
2023-01-23T11:14:24.149Z,16.70
2023-01-23T11:16:25.603Z,16.85
2023-01-23T11:19:04.566Z,16.75
2023-01-23T11:21:20.463Z,17.02
2023-01-23T11:23:29.477Z,15.73
2023-01-23T11:25:51.083Z,16.58
2023-01-23T11:28:13.961Z,15.57
2023-01-23T11:30:28.094Z,16.25
2023-01-23T11:32:58.852Z,15.18
2023-01-23T11:37:09.127Z,15.75
2023-01-23T11:39:35.672Z,16.02
2023-01-23T11:41:37.287Z,15.63
2023-01-23T11:43:45.480Z,14.25
2023-01-23T11:46:12.375Z,15.48
2023-01-23T11:48:35.525Z,14.38
2023-01-23T11:50:55.772Z,14.48
2023-01-23T11:52:59.151Z,14.27
2023-01-23T11:55:06.031Z,13.63
2023-01-23T11:57:26.869Z,14.13
2023-01-23T11:59:51.024Z,13.68
2023-01-23T12:02:17.113Z,12.63
2023-01-23T12:04:39.292Z,12.38
2023-01-23T12:07:11.866Z,11.00
2023-01-23T12:09:21.852Z,11.23
2023-01-23T12:11:25.854Z,9.57
2023-01-23T12:13:30.807Z,9.00
2023-01-23T12:16:00.692Z,8.80
2023-01-23T12:18:22.482Z,7.30
2023-01-23T12:20:38.886Z,8.50
2023-01-23T12:22:40.484Z,7.70
2023-01-23T12:24:54.020Z,7.00
2023-01-23T12:27:57.844Z,8.52
2023-01-23T12:30:33.365Z,8.63
2023-01-23T12:32:42.250Z,7.85
2023-01-23T12:34:49.792Z,8.50
2023-01-23T12:37:19.275Z,8.00
2023-01-23T12:39:52.117Z,7.50
2023-01-23T12:41:58.222Z,7.40
2023-01-23T12:44:08.887Z,9.88
2023-01-23T12:46:14.165Z,9.68
2023-01-23T12:48:30.844Z,10.48
2023-01-23T12:50:47.830Z,9.00
2023-01-23T12:52:59.765Z,8.98
2023-01-23T12:55:04.138Z,7.95
2023-01-23T12:57:05.981Z,7.15
2023-01-23T12:59:22.160Z,6.13
2023-01-23T13:01:28.476Z,5.85
2023-01-23T13:03:46.071Z,6.65
2023-01-23T13:06:01.946Z,6.82
2023-01-23T13:08:10.942Z,6.95
2023-01-23T13:10:52.353Z,7.57
2023-01-23T13:12:55.736Z,7.82
2023-01-23T13:15:17.314Z,8.07
2023-01-23T13:17:26.122Z,6.95
2023-01-23T13:19:58.952Z,7.82
2023-01-23T13:22:18.920Z,9.07
2023-01-23T13:24:49.081Z,9.88
2023-01-23T13:26:53.309Z,9.98
2023-01-23T13:29:02.559Z,9.55
2023-01-23T13:31:07.352Z,8.93
2023-01-23T13:33:30.381Z,8.05
2023-01-23T13:35:40.368Z,8.50
2023-01-23T13:37:50.999Z,8.70
2023-01-23T13:40:15.744Z,7.85
2023-01-23T13:42:22.598Z,8.50
2023-01-23T13:44:40.158Z,7.47
2023-01-23T14:21:57.524Z,4.82
2023-01-23T14:24:01.318Z,4.05
2023-01-23T14:26:06.095Z,4.97
2023-01-23T14:28:17.665Z,5.03
2023-01-23T14:30:28.216Z,4.43
2023-01-23T14:32:33.341Z,4.22
2023-01-23T14:34:53.563Z,4.28
2023-01-23T14:37:05.822Z,3.95
2023-01-23T14:39:21.002Z,2.92
2023-01-23T14:41:31.120Z,3.92
2023-01-23T14:43:37.145Z,3.53
2023-01-23T14:45:47.931Z,3.58
2023-01-23T14:48:04.631Z,3.13
2023-01-23T14:50:15.912Z,4.05
2023-01-23T14:52:28.917Z,4.35
2023-01-23T14:54:33.296Z,5.10
2023-01-23T14:56:39.426Z,4.30
2023-01-23T14:58:41.601Z,5.18
2023-01-23T15:00:46.427Z,4.55
2023-01-23T15:02:51.234Z,4.70
2023-01-23T15:05:09.425Z,5.65
2023-01-23T15:07:17.067Z,5.30
2023-01-23T15:09:37.507Z,5.18
2023-01-23T15:11:39.216Z,5.80
2023-01-23T15:13:51.503Z,5.25
2023-01-23T15:15:57.240Z,4.85
2023-01-23T15:18:03.057Z,6.38
2023-01-23T15:20:04.822Z,5.15
2023-01-23T15:22:28.666Z,5.43
2023-01-23T15:24:30.304Z,6.18
2023-01-23T15:28:49.471Z,6.85
2023-01-23T15:30:53.955Z,6.35
2023-01-23T15:32:56.151Z,5.60
2023-01-23T15:35:00.423Z,6.97
2023-01-23T15:37:11.060Z,7.10
2023-01-23T15:39:16.615Z,7.57
2023-01-23T15:41:33.698Z,6.43
2023-01-23T15:43:36.101Z,7.18
2023-01-23T15:45:37.942Z,7.57
2023-01-23T15:47:58.384Z,7.13
2023-01-23T15:50:06.088Z,7.85
2023-01-23T15:52:18.922Z,8.48
2023-01-23T15:54:28.684Z,8.60
2023-01-23T15:56:36.649Z,7.15
2023-01-23T15:58:41.234Z,7.53
2023-01-23T16:00:48.887Z,8.73
2023-01-23T16:02:56.663Z,8.27
2023-01-23T16:04:59.184Z,7.95
2023-01-23T16:07:03.351Z,8.75
2023-01-23T16:11:10.421Z,8.95
2023-01-23T16:13:13.736Z,8.90
2023-01-23T16:15:23.120Z,9.90
2023-01-23T16:17:24.769Z,8.80
2023-01-23T16:19:29.215Z,9.35
2023-01-23T16:21:31.111Z,10.13
2023-01-23T16:23:46.281Z,10.27
2023-01-23T16:25:54.828Z,10.25
2023-01-23T16:27:56.501Z,10.27
2023-01-23T16:30:04.147Z,10.40
2023-01-23T16:32:05.841Z,11.98
2023-01-23T16:34:13.476Z,11.02
2023-01-23T16:36:21.032Z,12.93
2023-01-23T16:38:24.043Z,13.25
2023-01-23T16:40:27.148Z,12.48
2023-01-23T16:42:34.474Z,13.03
2023-01-23T16:44:36.004Z,12.13
2023-01-23T16:46:37.564Z,10.82
2023-01-23T16:48:39.517Z,10.00
2023-01-23T16:50:45.604Z,10.85
2023-01-23T16:53:03.052Z,12.20
2023-01-23T16:55:35.143Z,12.77
2023-01-23T16:57:56.680Z,12.63
2023-01-23T16:59:58.315Z,12.25
2023-01-23T17:02:15.484Z,11.90
2023-01-23T17:04:23.575Z,11.05
2023-01-23T17:06:31.130Z,11.05
2023-01-23T17:11:00.654Z,10.23
2023-01-23T17:13:09.691Z,10.38
2023-01-23T17:15:22.377Z,9.93
2023-01-23T17:17:31.978Z,11.00
2023-01-23T17:19:35.478Z,11.32
2023-01-23T17:21:39.643Z,11.18
2023-01-23T17:23:41.664Z,11.50
2023-01-23T17:25:59.836Z,11.90
2023-01-23T17:28:21.404Z,12.07
2023-01-23T17:30:28.810Z,12.48
2023-01-23T17:32:39.242Z,12.15
2023-01-23T17:34:50.135Z,12.00
2023-01-23T17:36:56.340Z,12.10
2023-01-23T17:39:00.976Z,9.82
2023-01-23T17:41:04.722Z,10.52
2023-01-23T17:43:11.245Z,11.02
2023-01-23T17:45:14.635Z,9.93
2023-01-23T17:47:22.125Z,13.30
2023-01-23T17:49:54.327Z,12.77
2023-01-23T17:51:57.164Z,12.60
2023-01-23T17:54:08.409Z,13.80
2023-01-23T17:56:18.902Z,13.13
2023-01-23T17:58:22.787Z,13.50
2023-01-23T18:00:27.608Z,14.70
2023-01-23T18:02:32.786Z,15.65
2023-01-23T18:04:45.899Z,16.58
2023-01-23T18:06:54.118Z,15.52
2023-01-23T18:09:05.709Z,15.60
2023-01-23T18:11:22.926Z,13.38
2023-01-23T18:13:30.725Z,15.88
2023-01-23T18:16:01.327Z,17.27
2023-01-23T18:18:22.230Z,17.92
2023-01-23T18:20:28.536Z,15.52
2023-01-23T18:22:39.943Z,14.93
2023-01-23T18:24:46.157Z,15.52
2023-01-23T18:26:47.853Z,14.30
2023-01-23T18:28:52.348Z,14.15
2023-01-23T18:30:56.661Z,16.27
2023-01-23T18:33:19.339Z,14.18
2023-01-23T18:35:42.671Z,13.48
2023-01-23T18:37:55.357Z,15.93
2023-01-23T18:40:20.745Z,14.38
2023-01-23T18:42:31.344Z,17.58
2023-01-23T18:44:34.795Z,17.35
2023-01-23T18:46:36.603Z,17.57
2023-01-23T18:48:41.097Z,18.13
2023-01-23T18:50:58.250Z,17.60
2023-01-23T18:55:48.970Z,18.30
2023-01-23T18:57:55.944Z,17.10
2023-01-23T19:00:12.650Z,19.25
2023-01-23T19:02:19.591Z,19.55
2023-01-23T19:04:30.356Z,20.10
2023-01-23T19:06:35.081Z,19.80
2023-01-23T19:08:36.730Z,19.77
2023-01-23T19:10:48.420Z,19.67
2023-01-23T19:12:56.082Z,19.25
2023-01-23T19:15:06.700Z,21.80
2023-01-23T19:17:16.447Z,24.02
2023-01-23T19:19:19.734Z,24.20
2023-01-23T19:21:40.519Z,26.52
2023-01-23T19:23:46.565Z,24.92
2023-01-23T19:25:48.267Z,25.02
2023-01-23T19:27:57.074Z,26.60
2023-01-23T19:30:04.967Z,25.55
2023-01-23T19:32:25.275Z,26.65
2023-01-23T19:34:33.334Z,25.25
2023-01-23T19:36:36.103Z,27.38
2023-01-23T19:38:37.720Z,29.20
2023-01-23T19:40:40.028Z,27.75
2023-01-23T19:42:52.385Z,27.42
2023-01-23T19:45:00.590Z,28.63
2023-01-23T19:47:06.860Z,27.88
2023-01-23T19:49:08.889Z,25.77
2023-01-23T19:51:15.671Z,27.58
2023-01-23T19:53:18.552Z,29.00
2023-01-23T19:55:28.237Z,28.35
2023-01-23T19:57:48.582Z,29.75
2023-01-23T19:59:55.925Z,26.75
2023-01-23T20:01:57.427Z,29.05
2023-01-23T20:04:05.583Z,27.08
2023-01-23T20:06:07.268Z,29.92
2023-01-23T20:08:10.004Z,28.77
2023-01-23T20:10:30.414Z,28.33
2023-01-23T20:12:32.013Z,27.52
2023-01-23T20:14:33.439Z,30.13
2023-01-23T20:16:43.109Z,29.85
2023-01-23T20:18:48.125Z,28.02
2023-01-23T20:20:49.558Z,31.08
2023-01-23T20:23:09.610Z,28.75
2023-01-23T20:25:12.394Z,30.30
2023-01-23T20:27:20.225Z,28.30
2023-01-23T20:29:24.490Z,28.55
2023-01-23T20:31:29.028Z,30.67
2023-01-23T20:33:30.567Z,31.23
2023-01-23T20:35:38.483Z,31.00
2023-01-23T20:37:39.965Z,29.85
2023-01-23T20:39:44.412Z,30.00
2023-01-23T20:43:50.277Z,29.05
2023-01-23T20:45:52.802Z,31.77
2023-01-23T20:47:58.034Z,31.15
2023-01-23T20:50:18.168Z,32.42
2023-01-23T20:52:38.419Z,32.90
2023-01-23T20:54:39.840Z,33.15
2023-01-23T20:56:48.451Z,30.63
2023-01-23T20:59:10.401Z,32.78
2023-01-23T21:01:17.259Z,35.72
2023-01-23T21:03:23.436Z,36.45
2023-01-23T21:05:29.849Z,34.17
2023-01-23T21:07:40.400Z,34.25
2023-01-23T21:09:46.400Z,35.33
2023-01-23T21:11:51.994Z,36.00
2023-01-23T21:13:58.324Z,38.13
2023-01-23T21:16:09.489Z,37.15
2023-01-23T21:18:15.173Z,35.85
2023-01-23T21:20:39.965Z,34.70
2023-01-23T21:22:42.788Z,33.78
2023-01-23T21:24:45.332Z,35.40
2023-01-23T21:26:49.917Z,34.42
2023-01-23T21:28:59.355Z,33.78
2023-01-23T21:31:10.830Z,34.38
2023-01-23T21:33:15.327Z,37.33
2023-01-23T21:35:16.853Z,38.22
2023-01-23T21:37:22.034Z,36.10
2023-01-23T21:39:23.489Z,34.20
2023-01-23T21:41:30.956Z,33.50
2023-01-23T21:43:51.008Z,35.75
2023-01-23T21:45:57.087Z,33.55
2023-01-23T21:47:58.781Z,34.95
2023-01-23T21:50:00.301Z,31.20
2023-01-23T21:52:01.918Z,34.28
2023-01-23T21:54:03.457Z,30.55
2023-01-23T21:58:11.677Z,33.07
2023-01-23T22:00:32.058Z,33.00
2023-01-23T22:02:36.370Z,34.92
2023-01-23T22:06:45.448Z,36.25
2023-01-23T22:08:49.707Z,35.00
2023-01-23T22:10:51.187Z,36.30
2023-01-23T22:15:15.446Z,31.65
2023-01-23T22:17:16.969Z,34.55
2023-01-23T22:19:22.052Z,33.08
2023-01-23T22:21:27.905Z,34.78
2023-01-23T22:23:32.309Z,35.53
2023-01-23T22:25:33.747Z,34.60
2023-01-23T22:27:35.277Z,32.97
2023-01-23T22:29:39.616Z,35.25
2023-01-23T22:31:43.927Z,33.97
2023-01-23T22:33:48.754Z,35.67
2023-01-23T22:35:50.360Z,35.92
2023-01-23T22:37:54.833Z,35.30
2023-01-23T22:39:56.295Z,34.13
2023-01-23T22:42:02.730Z,33.83
2023-01-23T22:44:07.260Z,33.47
2023-01-23T22:46:10.488Z,36.35
2023-01-23T22:48:14.732Z,35.65
2023-01-23T22:50:17.098Z,33.90
2023-01-23T22:52:18.861Z,33.92
2023-01-23T22:54:20.391Z,34.15
2023-01-23T22:56:22.369Z,32.78
2023-01-23T22:58:30.194Z,35.03
2023-01-23T23:00:34.723Z,31.83
2023-01-23T23:02:42.007Z,33.50
2023-01-23T23:04:49.987Z,32.08
2023-01-23T23:06:51.460Z,35.67
2023-01-23T23:11:01.087Z,31.95
2023-01-23T23:13:02.707Z,33.80
2023-01-23T23:15:04.497Z,34.03
2023-01-23T23:17:09.039Z,32.40
2023-01-23T23:19:11.006Z,32.10
2023-01-23T23:21:14.029Z,33.78
2023-01-23T23:23:15.868Z,34.00
2023-01-23T23:25:17.494Z,35.10
2023-01-23T23:27:18.966Z,34.47
2023-01-23T23:29:20.417Z,33.95
2023-01-23T23:31:24.823Z,35.00
2023-01-23T23:33:27.004Z,33.78
2023-01-23T23:35:31.598Z,33.60
2023-01-23T23:37:33.053Z,34.53
2023-01-23T23:39:34.500Z,32.75
2023-01-23T23:41:36.243Z,32.92
2023-01-23T23:43:37.727Z,33.78
2023-01-23T23:45:39.431Z,32.10
2023-01-23T23:47:43.801Z,33.33
2023-01-23T23:49:45.246Z,33.08
2023-01-23T23:51:49.742Z,30.55
2023-01-23T23:53:55.579Z,32.58
2023-01-23T23:55:57.182Z,32.55
